Time;durP1;ratioP1;P1;durP2;ratioP2;P2;SDS_P1;SDS_P2;PMS_P1;PMS_P2;Temp;Humidity;BMP_temperature;BMP_pressure;BME280_temperature;BME280_humidity;BME280_pressure;Samples;Min_cycle;Max_cycle;Signal;HPM_P1;HPM_P2
2023/03/12 00:01:18;;;;;;;5.90;2.10;;;;;;;13.66;57.27;99871.11;1859105;77;21472;-45
2023/03/12 00:03:47;;;;;;;5.53;2.33;;;;;;;13.59;57.33;99910.80;1855855;77;21112;-47
2023/03/12 00:06:17;;;;;;;16.48;2.90;;;;;;;13.53;58.19;99923.12;1860285;77;21466;-46
2023/03/12 00:08:48;;;;;;;16.30;3.37;;;;;;;13.43;58.75;99917.09;1856254;77;21555;-47
2023/03/12 00:11:19;;;;;;;14.55;3.90;;;;;;;13.34;59.48;99909.75;1862909;77;21470;-43
2023/03/12 00:13:52;;;;;;;11.60;2.75;;;;;;;13.23;59.85;99887.09;1853786;77;21042;-45
2023/03/12 00:16:22;;;;;;;5.83;2.35;;;;;;;13.17;60.13;99894.06;1854238;77;21509;-43
2023/03/12 00:18:53;;;;;;;7.28;2.55;;;;;;;13.11;60.47;99897.95;1841838;77;21094;-43
2023/03/12 00:21:22;;;;;;;10.35;2.83;;;;;;;13.13;60.56;99903.53;1810702;79;21188;-43
2023/03/12 00:23:51;;;;;;;6.53;2.62;;;;;;;13.16;60.47;99902.95;1807885;78;21163;-41
2023/03/12 00:26:21;;;;;;;11.28;3.17;;;;;;;13.14;60.51;99895.95;1820170;78;21473;-41
2023/03/12 00:28:51;;;;;;;8.15;2.90;;;;;;;13.16;60.29;99895.86;1834046;78;21039;-41
2023/03/12 00:31:28;;;;;;;37.00;4.28;;;;;;;13.16;60.43;99897.67;1847153;78;21489;-42
2023/03/12 00:33:57;;;;;;;4.90;1.72;;;;;;;13.12;60.58;99895.69;1847222;78;21489;-41
2023/03/12 00:36:28;;;;;;;6.97;2.77;;;;;;;13.11;60.90;99904.10;1847291;78;21021;-41
2023/03/12 00:38:58;;;;;;;5.17;1.72;;;;;;;13.07;61.34;99903.89;1847584;78;21005;-43
2023/03/12 00:41:29;;;;;;;11.93;2.37;;;;;;;13.03;61.30;99906.84;1821441;78;21055;-43
2023/03/12 00:43:57;;;;;;;6.97;2.10;;;;;;;12.99;61.66;99904.86;1812586;78;21136;-43
2023/03/12 00:46:27;;;;;;;8.70;2.50;;;;;;;12.95;61.91;99906.00;1847318;78;21007;-43
2023/03/12 00:48:55;;;;;;;9.13;2.60;;;;;;;12.88;62.31;99912.61;1814615;78;21114;-43
2023/03/12 00:51:24;;;;;;;10.50;2.70;;;;;;;12.80;62.80;99916.17;1807739;78;21117;-44
2023/03/12 00:53:52;;;;;;;5.45;1.92;;;;;;;12.72;63.57;99915.33;1808849;78;21079;-43
2023/03/12 00:56:21;;;;;;;17.80;3.10;;;;;;;12.63;64.16;99919.38;1815200;78;21106;-42
2023/03/12 00:58:50;;;;;;;3.85;1.27;;;;;;;12.55;64.55;99908.44;1820010;78;21156;-41
2023/03/12 01:01:19;;;;;;;10.43;2.87;;;;;;;12.52;64.78;99895.41;1794194;80;21034;-41
2023/03/12 01:03:48;;;;;;;6.12;2.22;;;;;;;12.48;64.45;99901.83;1842056;78;21129;-43
2023/03/12 01:06:18;;;;;;;3.20;1.80;;;;;;;12.46;64.83;99898.44;1847476;78;21086;-45
2023/03/12 01:08:46;;;;;;;8.68;2.37;;;;;;;12.40;65.41;99897.02;1847519;78;21132;-45
2023/03/12 01:11:18;;;;;;;5.67;2.52;;;;;;;12.40;65.31;99897.49;1847443;77;21140;-45
2023/03/12 01:13:47;;;;;;;12.75;3.45;;;;;;;12.40;65.63;99894.85;1847445;78;21054;-45
2023/03/12 01:16:16;;;;;;;5.47;2.00;;;;;;;12.38;65.74;99907.30;1817036;79;21556;-45
2023/03/12 01:18:44;;;;;;;7.35;2.17;;;;;;;12.36;66.03;99898.14;1816966;79;21140;-46
2023/03/12 01:21:13;;;;;;;6.37;2.10;;;;;;;12.32;66.00;99900.12;1824140;78;21102;-45
2023/03/12 01:23:42;;;;;;;5.12;1.87;;;;;;;12.29;65.94;99903.41;1826294;78;21128;-45
2023/03/12 01:26:10;;;;;;;3.70;2.10;;;;;;;12.27;66.57;99892.94;1826056;78;21030;-45
2023/03/12 01:28:39;;;;;;;6.33;2.20;;;;;;;12.25;66.82;99896.14;1826310;78;21599;-43
2023/03/12 01:31:10;;;;;;;12.43;2.65;;;;;;;12.25;66.96;99910.66;1839266;77;21097;-43
2023/03/12 01:33:39;;;;;;;5.00;1.82;;;;;;;12.27;66.83;99923.77;1858390;77;21058;-43
2023/03/12 01:36:17;;;;;;;5.80;1.40;;;;;;;12.30;66.58;99921.80;1855019;77;21132;-43
2023/03/12 01:38:46;;;;;;;5.80;1.80;;;;;;;12.36;66.13;99921.91;1856893;77;21064;-43
2023/03/12 01:41:15;;;;;;;7.28;2.08;;;;;;;12.38;66.01;99923.98;1842537;77;21524;-43
2023/03/12 01:43:45;;;;;;;4.05;1.65;;;;;;;12.39;66.03;99918.22;1822300;77;21083;-43
2023/03/12 01:46:29;;;;;;;4.58;2.00;;;;;;;12.41;66.17;99926.89;1819677;77;21137;-43
2023/03/12 01:49:07;;;;;;;2.08;1.10;;;;;;;12.44;66.00;99939.92;1840164;77;21085;-43
2023/03/12 01:51:41;;;;;;;6.67;1.70;;;;;;;12.46;65.80;99952.56;1856200;77;21074;-42
2023/03/12 01:54:18;;;;;;;4.85;1.60;;;;;;;12.50;65.96;99958.03;1856760;77;21050;-41
2023/03/12 01:56:48;;;;;;;4.15;1.60;;;;;;;12.49;65.58;99962.47;1853746;77;21070;-43
2023/03/12 01:59:29;;;;;;;7.28;1.90;;;;;;;12.49;65.45;99955.87;1837827;77;21473;-45
2023/03/12 02:01:59;;;;;;;7.72;2.17;;;;;;;12.49;65.14;99966.43;1863158;77;21547;-45
2023/03/12 02:04:29;;;;;;;5.50;1.67;;;;;;;12.49;65.08;99969.55;1836998;77;21070;-45
2023/03/12 02:07:06;;;;;;;5.35;1.90;;;;;;;12.47;65.10;99980.20;1825803;78;21567;-45
2023/03/12 02:09:38;;;;;;;3.52;1.50;;;;;;;12.47;65.12;99969.63;1825940;78;21582;-45
2023/03/12 02:12:08;;;;;;;5.92;1.60;;;;;;;12.50;64.98;99969.91;1825679;78;21090;-44
2023/03/12 02:14:37;;;;;;;3.80;2.02;;;;;;;12.52;65.03;99966.70;1825947;78;21062;-41
2023/03/12 02:17:08;;;;;;;6.78;2.10;;;;;;;12.54;65.18;99969.66;1824842;77;21086;-41
2023/03/12 02:19:51;;;;;;;4.97;1.15;;;;;;;12.52;65.11;99957.02;1824379;79;21058;-41
2023/03/12 02:22:21;;;;;;;2.87;1.30;;;;;;;12.59;65.74;99962.76;1823893;78;21070;-41
2023/03/12 02:24:55;;;;;;;3.25;0.98;;;;;;;12.66;65.71;99971.17;1825310;79;21070;-41
2023/03/12 02:27:24;;;;;;;1.52;0.70;;;;;;;12.67;65.45;99972.41;1825494;78;21058;-41
2023/03/12 02:29:53;;;;;;;3.10;1.00;;;;;;;12.70;65.31;99977.49;1828429;78;21564;-43
2023/03/12 02:32:25;;;;;;;3.72;1.15;;;;;;;12.73;65.15;99983.92;1828355;78;21132;-43
2023/03/12 02:34:53;;;;;;;1.27;0.65;;;;;;;12.77;64.97;99985.06;1828433;78;21133;-44
2023/03/12 02:37:22;;;;;;;2.92;0.78;;;;;;;12.81;64.81;99987.42;1828559;78;21148;-43
2023/03/12 02:39:56;;;;;;;1.05;0.80;;;;;;;12.89;64.59;99982.53;1825873;78;21082;-42
2023/03/12 02:42:26;;;;;;;0.88;0.57;;;;;;;12.97;64.22;99987.34;1824871;79;21517;-42
2023/03/12 02:44:55;;;;;;;1.67;0.78;;;;;;;13.01;64.02;99990.17;1825361;79;21567;-42
2023/03/12 02:47:23;;;;;;;1.30;0.70;;;;;;;13.04;63.79;99988.67;1825239;79;21095;-42
2023/03/12 02:49:53;;;;;;;2.83;0.80;;;;;;;13.05;63.69;99995.64;1825334;79;21148;-42
2023/03/12 02:52:21;;;;;;;2.33;1.02;;;;;;;13.05;63.58;99993.00;1825172;79;21214;-42
2023/03/12 02:54:50;;;;;;;0.93;0.60;;;;;;;13.07;63.43;99991.11;1825236;79;21073;-42
2023/03/12 02:57:19;;;;;;;3.37;0.98;;;;;;;13.06;63.32;99991.23;1825237;79;21094;-42
2023/03/12 02:59:48;;;;;;;1.40;0.50;;;;;;;13.04;63.21;99995.28;1825329;79;21136;-43
2023/03/12 03:02:16;;;;;;;2.50;0.80;;;;;;;13.02;63.17;100002.45;1825210;79;21141;-43
2023/03/12 03:04:45;;;;;;;1.07;0.72;;;;;;;12.99;63.18;100005.28;1825249;79;21088;-40
2023/03/12 03:07:14;;;;;;;2.45;0.75;;;;;;;12.97;63.17;100009.81;1825331;79;21501;-40
2023/03/12 03:09:43;;;;;;;1.82;0.62;;;;;;;12.93;63.05;99999.05;1825243;79;21109;-39
2023/03/12 03:12:12;;;;;;;3.05;0.90;;;;;;;12.87;63.08;99999.41;1825387;79;21160;-40
2023/03/12 03:14:41;;;;;;;2.95;0.72;;;;;;;12.87;63.07;100006.01;1825374;78;21477;-40
2023/03/12 03:17:10;;;;;;;2.25;0.70;;;;;;;12.86;63.21;99999.05;1828453;78;21121;-41
2023/03/12 03:19:39;;;;;;;0.98;0.65;;;;;;;12.85;63.19;99994.69;1828524;78;21175;-41
2023/03/12 03:22:07;;;;;;;1.50;0.70;;;;;;;12.84;63.28;99998.29;1824578;78;21125;-42
2023/03/12 03:24:36;;;;;;;2.45;0.80;;;;;;;12.86;63.18;100000.36;1823668;77;21516;-40
2023/03/12 03:27:05;;;;;;;1.55;0.75;;;;;;;12.86;63.18;100008.29;1831162;78;21168;-41
2023/03/12 03:29:33;;;;;;;1.35;0.70;;;;;;;12.85;63.33;100007.90;1832491;78;21061;-43
2023/03/12 03:32:03;;;;;;;3.33;0.75;;;;;;;12.88;63.34;100015.65;1828532;78;21570;-42
2023/03/12 03:34:32;;;;;;;3.50;0.57;;;;;;;12.97;63.41;100012.94;1825147;79;21556;-42
2023/03/12 03:37:01;;;;;;;3.27;0.90;;;;;;;13.03;63.33;100021.31;1830305;78;21152;-42
2023/03/12 03:39:30;;;;;;;4.03;0.90;;;;;;;13.08;63.14;100020.57;1830432;78;21524;-43
2023/03/12 03:41:59;;;;;;;2.00;0.80;;;;;;;13.13;63.08;100025.11;1830480;78;21100;-42
2023/03/12 03:44:29;;;;;;;3.05;0.80;;;;;;;13.18;62.90;100027.94;1830393;78;21603;-44
2023/03/12 03:46:58;;;;;;;2.12;0.70;;;;;;;13.21;62.84;100026.44;1830275;78;21497;-43
2023/03/12 03:49:26;;;;;;;6.25;0.95;;;;;;;13.23;62.62;100029.36;1825191;79;21046;-45
2023/03/12 03:51:55;;;;;;;0.98;0.60;;;;;;;13.27;62.69;100028.70;1825743;78;21042;-41
2023/03/12 03:54:25;;;;;;;2.22;0.90;;;;;;;13.29;62.53;100036.06;1828031;78;21121;-44
2023/03/12 03:56:54;;;;;;;2.05;0.82;;;;;;;13.34;62.47;100036.66;1822774;78;21160;-44
2023/03/12 03:59:23;;;;;;;2.17;0.50;;;;;;;13.34;62.21;100031.86;1794097;80;21157;-44
2023/03/12 04:01:52;;;;;;;1.82;1.05;;;;;;;13.30;62.17;100036.45;1794158;80;21486;-44
2023/03/12 04:04:21;;;;;;;4.45;1.67;;;;;;;13.32;62.05;100042.52;1794044;80;21104;-44
2023/03/12 04:06:50;;;;;;;5.37;2.17;;;;;;;13.35;61.96;100046.28;1794259;80;21450;-42
2023/03/12 04:09:19;;;;;;;0.70;0.50;;;;;;;13.39;61.82;100053.10;1794094;80;21135;-43
2023/03/12 04:11:48;;;;;;;3.30;0.80;;;;;;;13.41;61.72;100056.95;1795815;78;21077;-40
2023/03/12 04:14:16;;;;;;;2.42;0.68;;;;;;;13.42;61.61;100058.18;1830096;78;21113;-43
2023/03/12 04:16:46;;;;;;;2.75;0.70;;;;;;;13.45;61.44;100052.71;1825563;78;21521;-42
2023/03/12 04:19:15;;;;;;;3.83;2.58;;;;;;;13.46;61.39;100061.48;1826442;77;21152;-43
2023/03/12 04:21:43;;;;;;;1.35;0.78;;;;;;;13.47;61.38;100064.04;1832130;77;21125;-44
2023/03/12 04:24:19;;;;;;;2.50;0.70;;;;;;;13.49;61.30;100054.22;1825816;77;21126;-43
2023/03/12 04:26:48;;;;;;;2.27;0.70;;;;;;;13.51;61.17;100041.74;1819974;79;21165;-44
2023/03/12 04:29:18;;;;;;;2.92;0.98;;;;;;;13.54;61.17;100061.00;1819857;79;21109;-44
2023/03/12 04:31:46;;;;;;;3.70;1.12;;;;;;;13.59;61.11;100054.48;1848949;76;21036;-42
2023/03/12 04:34:15;;;;;;;1.27;0.70;;;;;;;13.68;60.98;100055.26;1856693;77;21121;-42
2023/03/12 04:36:47;;;;;;;2.22;0.80;;;;;;;13.79;60.85;100069.11;1856598;77;21481;-43
2023/03/12 04:39:19;;;;;;;3.10;1.20;;;;;;;13.94;60.64;100054.05;1856931;77;21041;-47
2023/03/12 04:41:50;;;;;;;1.85;0.65;;;;;;;14.23;60.22;100065.89;1856697;76;21069;-42
2023/03/12 04:44:18;;;;;;;2.37;0.78;;;;;;;14.69;59.56;100073.97;1856627;76;21037;-42
2023/03/12 04:46:47;;;;;;;2.92;1.00;;;;;;;15.06;59.15;100065.21;1856701;77;21151;-44
2023/03/12 04:49:17;;;;;;;2.75;0.82;;;;;;;15.30;57.75;100071.59;1856551;77;21098;-46
2023/03/12 04:51:46;;;;;;;3.95;0.65;;;;;;;15.53;57.39;100081.91;1852077;77;21130;-45
2023/03/12 04:54:16;;;;;;;3.85;0.72;;;;;;;15.83;57.13;100086.41;1849909;77;21039;-43
2023/03/12 04:56:45;;;;;;;2.42;1.05;;;;;;;16.11;55.98;100087.58;1856798;77;21165;-45
2023/03/12 04:59:13;;;;;;;2.98;1.05;;;;;;;16.38;55.29;100080.73;1856736;77;21191;-45
2023/03/12 05:01:43;;;;;;;3.47;1.10;;;;;;;16.58;54.56;100074.78;1856747;77;21529;-44
2023/03/12 05:04:13;;;;;;;3.72;1.10;;;;;;;16.77;54.65;100085.36;1855658;77;21613;-45
2023/03/12 05:06:43;;;;;;;2.10;0.88;;;;;;;16.87;53.99;100097.01;1851953;77;21580;-46
2023/03/12 05:09:12;;;;;;;2.45;1.00;;;;;;;16.85;53.77;100094.11;1819698;79;21160;-47
2023/03/12 05:11:41;;;;;;;3.40;1.00;;;;;;;16.83;53.95;100099.54;1831831;77;21066;-46
2023/03/12 05:14:12;;;;;;;2.30;0.90;;;;;;;16.75;54.15;100089.94;1856679;77;21485;-45
2023/03/12 05:16:41;;;;;;;2.22;0.70;;;;;;;16.72;54.06;100096.81;1835346;77;21062;-42
2023/03/12 05:19:10;;;;;;;3.90;1.17;;;;;;;16.61;53.69;100086.98;1856845;77;21156;-41
2023/03/12 05:21:41;;;;;;;3.27;0.90;;;;;;;16.51;54.01;100098.78;1856737;77;21031;-46
2023/03/12 05:24:11;;;;;;;3.58;1.00;;;;;;;16.36;54.05;100113.20;1861592;77;21086;-43
2023/03/12 05:26:40;;;;;;;1.55;0.98;;;;;;;16.14;54.55;100102.81;1863305;77;21054;-42
2023/03/12 05:29:13;;;;;;;2.00;0.90;;;;;;;16.17;54.84;100120.31;1857642;77;21034;-43
2023/03/12 05:31:41;;;;;;;2.42;0.62;;;;;;;16.18;55.02;100113.56;1834372;77;21046;-57
2023/03/12 05:34:12;;;;;;;4.62;0.90;;;;;;;16.32;55.00;100122.34;1830468;77;21510;-58
2023/03/12 05:36:43;;;;;;;0.90;0.80;;;;;;;16.45;54.79;100129.80;1841025;77;21250;-58
2023/03/12 05:39:13;;;;;;;1.47;0.70;;;;;;;16.62;54.56;100131.21;1860888;77;21066;-59
2023/03/12 05:41:41;;;;;;;3.87;1.00;;;;;;;16.63;53.84;100145.34;1844379;77;21142;-58
2023/03/12 05:44:16;;;;;;;3.50;1.00;;;;;;;16.57;53.89;100150.14;1835093;77;21635;-57
2023/03/12 05:46:46;;;;;;;8.70;1.10;;;;;;;16.51;53.90;100154.59;1835491;77;21604;-58
2023/03/12 05:49:16;;;;;;;8.33;1.00;;;;;;;16.33;54.09;100159.91;1830936;78;21069;-59
2023/03/12 05:51:46;;;;;;;5.03;0.90;;;;;;;16.21;54.16;100161.17;1846402;77;21099;-57
2023/03/12 05:54:16;;;;;;;9.15;1.75;;;;;;;16.18;54.15;100162.70;1844747;78;21599;-57
2023/03/12 05:56:44;;;;;;;2.30;0.93;;;;;;;16.15;54.18;100161.59;1844793;78;21075;-57
2023/03/12 05:59:13;;;;;;;3.65;1.20;;;;;;;16.23;54.16;100164.17;1846200;78;21522;-57
2023/03/12 06:01:43;;;;;;;2.37;1.17;;;;;;;16.21;54.07;100165.16;1846327;78;21092;-58
2023/03/12 06:04:12;;;;;;;3.30;1.00;;;;;;;16.21;54.10;100170.92;1846451;77;21060;-58
2023/03/12 06:06:41;;;;;;;1.60;0.90;;;;;;;16.17;54.24;100168.96;1844605;78;21084;-58
2023/03/12 06:09:10;;;;;;;1.90;1.00;;;;;;;16.08;54.61;100172.27;1844896;78;21076;-57
2023/03/12 06:11:39;;;;;;;3.27;1.02;;;;;;;15.97;54.90;100173.52;1836847;77;21049;-57
2023/03/12 06:14:08;;;;;;;3.20;1.10;;;;;;;15.93;55.14;100185.31;1825194;78;21121;-57
2023/03/12 06:16:37;;;;;;;2.87;0.80;;;;;;;15.89;55.46;100166.59;1825191;78;21058;-56
2023/03/12 06:19:07;;;;;;;5.95;1.20;;;;;;;15.94;55.63;100183.05;1843776;77;21508;-57
2023/03/12 06:21:36;;;;;;;4.47;1.40;;;;;;;15.93;55.72;100192.80;1850834;77;21025;-55
2023/03/12 06:24:07;;;;;;;3.85;1.22;;;;;;;15.90;55.96;100193.48;1856025;76;21175;-54
2023/03/12 06:26:37;;;;;;;4.15;1.00;;;;;;;15.74;56.31;100195.89;1806230;78;21090;-58
2023/03/12 06:29:06;;;;;;;2.72;1.20;;;;;;;15.64;56.60;100192.16;1835300;78;21055;-44
2023/03/12 06:31:34;;;;;;;5.28;1.47;;;;;;;15.43;58.14;100211.22;1847234;78;21564;-44
2023/03/12 06:34:03;;;;;;;5.15;1.67;;;;;;;15.21;58.71;100205.67;1836193;78;21058;-44
2023/03/12 06:36:32;;;;;;;4.83;1.62;;;;;;;15.11;59.44;100221.84;1835873;78;21011;-44
2023/03/12 06:39:02;;;;;;;4.53;1.65;;;;;;;14.88;61.06;100192.37;1834993;78;21106;-44
2023/03/12 06:41:31;;;;;;;3.92;1.45;;;;;;;14.70;61.63;100236.84;1845753;78;21156;-58
2023/03/12 06:44:02;;;;;;;4.10;1.50;;;;;;;14.51;62.36;100215.92;1847507;78;21015;-60
2023/03/12 06:46:30;;;;;;;3.70;1.20;;;;;;;14.42;62.89;100234.59;1847572;77;21117;-55
2023/03/12 06:48:58;;;;;;;3.72;1.60;;;;;;;14.37;62.78;100241.13;1796142;79;21056;-57
2023/03/12 06:51:27;;;;;;;7.30;1.17;;;;;;;14.22;63.60;100242.46;1816827;79;21130;-57
2023/03/12 06:53:56;;;;;;;5.42;1.40;;;;;;;14.16;63.54;100245.47;1816750;79;21168;-58
2023/03/12 06:56:24;;;;;;;6.03;1.82;;;;;;;14.09;64.20;100221.64;1816940;79;21060;-50
2023/03/12 06:58:53;;;;;;;3.37;1.60;;;;;;;13.91;64.85;100267.31;1816870;79;21131;-49
2023/03/12 07:01:21;;;;;;;5.15;1.57;;;;;;;13.78;65.48;100263.23;1843797;78;21039;-47
2023/03/12 07:03:50;;;;;;;7.83;1.90;;;;;;;13.69;65.75;100266.42;1847668;78;21505;-50
2023/03/12 07:06:21;;;;;;;2.87;1.25;;;;;;;13.59;66.51;100270.55;1847400;78;21049;-48
2023/03/12 07:08:50;;;;;;;5.87;1.65;;;;;;;13.47;67.01;100275.63;1794554;77;21108;-48
2023/03/12 07:11:18;;;;;;;13.22;1.90;;;;;;;13.38;68.11;100277.48;1794258;80;21062;-51
2023/03/12 07:13:47;;;;;;;3.90;1.57;;;;;;;13.27;68.34;100289.12;1814031;78;21069;-51
2023/03/12 07:16:16;;;;;;;3.10;1.47;;;;;;;13.19;69.16;100295.33;1816782;79;21064;-50
2023/03/12 07:18:44;;;;;;;5.00;1.98;;;;;;;13.04;70.11;100291.28;1816784;79;21064;-50
2023/03/12 07:21:15;;;;;;;7.92;1.70;;;;;;;12.95;70.78;100297.09;1816888;79;21063;-48
2023/03/12 07:23:43;;;;;;;6.75;1.42;;;;;;;12.91;71.41;100298.17;1816752;79;21040;-48
2023/03/12 07:26:12;;;;;;;8.18;2.05;;;;;;;12.82;72.13;100294.72;1811809;78;21092;-49
2023/03/12 07:28:40;;;;;;;3.50;1.22;;;;;;;12.73;72.54;100306.67;1811764;79;21547;-48
2023/03/12 07:31:09;;;;;;;4.65;1.45;;;;;;;12.70;72.75;100306.83;1819099;78;21196;-44
2023/03/12 07:33:38;;;;;;;3.90;1.27;;;;;;;12.64;73.15;100301.42;1824629;78;21117;-44
2023/03/12 07:36:07;;;;;;;2.05;1.30;;;;;;;12.60;73.53;100294.61;1825747;78;21169;-52
2023/03/12 07:38:36;;;;;;;3.87;1.22;;;;;;;12.57;73.80;100305.33;1841743;78;21098;-54
2023/03/12 07:41:05;;;;;;;3.92;1.32;;;;;;;12.51;74.91;100303.87;1824339;78;21117;-50
2023/03/12 07:43:33;;;;;;;3.25;1.47;;;;;;;12.50;75.48;100320.64;1789558;80;21071;-53
2023/03/12 07:46:02;;;;;;;5.30;1.37;;;;;;;12.51;75.68;100316.23;1816696;78;21120;-55
2023/03/12 07:48:30;;;;;;;4.30;1.40;;;;;;;12.53;75.84;100317.00;1827846;78;21035;-58
2023/03/12 07:50:59;;;;;;;2.52;1.10;;;;;;;12.52;76.09;100319.23;1812090;78;21035;-57
2023/03/12 07:53:27;;;;;;;4.28;1.07;;;;;;;12.49;77.03;100321.59;1819177;78;21039;-51
2023/03/12 07:55:56;;;;;;;6.70;1.55;;;;;;;12.44;77.53;100334.66;1807733;79;21057;-49
2023/03/12 07:58:25;;;;;;;4.40;1.35;;;;;;;12.38;77.80;100341.59;1802816;79;21141;-50
2023/03/12 08:00:56;;;;;;;3.62;1.32;;;;;;;12.27;77.95;100332.44;1811817;79;21070;-52
2023/03/12 08:03:24;;;;;;;2.77;1.12;;;;;;;12.25;77.82;100336.95;1811945;79;21143;-50
2023/03/12 08:05:58;;;;;;;2.20;1.30;;;;;;;12.18;78.36;100336.88;1811831;79;21031;-49
2023/03/12 08:08:27;;;;;;;2.95;1.20;;;;;;;12.17;79.12;100336.48;1816261;79;21591;-50
2023/03/12 08:10:56;;;;;;;1.57;1.12;;;;;;;12.10;80.51;100341.72;1820530;78;21289;-49
2023/03/12 08:13:25;;;;;;;2.92;1.10;;;;;;;11.79;82.35;100340.60;1842368;78;21022;-48
2023/03/12 08:15:54;;;;;;;1.70;1.00;;;;;;;11.62;84.92;100343.20;1842266;78;21026;-50
2023/03/12 08:18:23;;;;;;;1.65;1.10;;;;;;;11.49;86.59;100344.28;1841559;76;21015;-47
2023/03/12 08:20:54;;;;;;;4.42;0.90;;;;;;;11.47;87.68;100344.38;1842074;78;21071;-50
2023/03/12 08:23:23;;;;;;;2.47;1.00;;;;;;;11.46;88.60;100347.94;1842303;78;21133;-48
2023/03/12 08:25:52;;;;;;;2.47;1.35;;;;;;;11.49;88.88;100353.06;1849661;76;21074;-48
2023/03/12 08:28:23;;;;;;;4.30;1.10;;;;;;;11.43;88.62;100346.75;1856813;77;21140;-48
2023/03/12 08:30:57;;;;;;;1.92;1.07;;;;;;;11.44;89.36;100355.06;1856757;77;21556;-49
2023/03/12 08:33:26;;;;;;;3.02;1.47;;;;;;;11.45;89.91;100355.91;1846017;77;21561;-50
2023/03/12 08:35:55;;;;;;;3.55;1.35;;;;;;;11.46;89.68;100361.59;1824471;79;21086;-50
2023/03/12 08:38:24;;;;;;;3.47;1.22;;;;;;;11.41;89.68;100363.11;1826947;77;21187;-49
2023/03/12 08:41:00;;;;;;;4.08;1.20;;;;;;;11.46;89.79;100361.59;1838039;76;21054;-48
2023/03/12 08:43:29;;;;;;;4.33;1.30;;;;;;;11.46;90.35;100363.75;1856741;77;21453;-47
2023/03/12 08:46:01;;;;;;;5.08;1.40;;;;;;;11.45;90.82;100364.66;1833938;77;21035;-47
2023/03/12 08:48:31;;;;;;;2.02;1.10;;;;;;;11.44;90.74;100368.25;1863126;77;21022;-46
2023/03/12 08:51:03;;;;;;;4.22;1.50;;;;;;;11.44;90.82;100368.25;1844915;77;21540;-50
2023/03/12 08:53:32;;;;;;;2.30;1.02;;;;;;;11.44;91.20;100370.04;1826895;76;21059;-42
2023/03/12 08:56:02;;;;;;;3.95;1.17;;;;;;;11.51;91.29;100367.47;1866103;76;21122;-46
2023/03/12 08:58:31;;;;;;;3.47;1.35;;;;;;;11.61;91.27;100361.30;1861345;76;21157;-44
2023/03/12 09:00:59;;;;;;;4.15;1.45;;;;;;;11.62;91.38;100365.19;1856619;77;21539;-44
2023/03/12 09:03:28;;;;;;;3.15;1.20;;;;;;;11.62;91.52;100365.63;1856693;77;21128;-47
2023/03/12 09:06:06;;;;;;;4.15;1.22;;;;;;;11.66;91.42;100360.61;1841257;77;21073;-46
2023/03/12 09:08:34;;;;;;;2.33;0.98;;;;;;;11.71;91.31;100369.13;1850795;77;21042;-45
2023/03/12 09:11:03;;;;;;;3.37;1.52;;;;;;;11.70;91.32;100367.44;1846532;76;21031;-46
2023/03/12 09:13:31;;;;;;;2.27;1.05;;;;;;;11.67;91.36;100364.47;1848359;76;21070;-47
2023/03/12 09:16:01;;;;;;;4.00;1.37;;;;;;;11.70;91.45;100360.84;1846156;76;21097;-48
2023/03/12 09:18:30;;;;;;;2.12;1.05;;;;;;;11.72;91.28;100372.17;1847948;76;21034;-47
2023/03/12 09:20:59;;;;;;;3.42;1.40;;;;;;;11.71;91.31;100375.28;1835886;77;21116;-48
2023/03/12 09:23:28;;;;;;;2.27;1.30;;;;;;;11.69;91.45;100374.50;1856759;77;21501;-45
2023/03/12 09:25:57;;;;;;;2.70;1.22;;;;;;;11.72;91.51;100360.30;1829482;77;21653;-46
2023/03/12 09:28:26;;;;;;;2.02;1.20;;;;;;;11.73;91.47;100360.23;1819247;79;21058;-49
2023/03/12 09:30:54;;;;;;;5.03;1.60;;;;;;;11.72;91.31;100369.53;1819163;79;21198;-47
2023/03/12 09:33:23;;;;;;;2.30;1.17;;;;;;;11.71;91.40;100367.80;1813865;79;21083;-47
2023/03/12 09:35:59;;;;;;;1.90;1.37;;;;;;;11.73;91.48;100363.30;1812860;79;21064;-48
2023/03/12 09:38:30;;;;;;;6.45;1.40;;;;;;;11.78;91.39;100366.58;1852574;76;21460;-46
2023/03/12 09:40:58;;;;;;;2.10;1.35;;;;;;;11.81;91.29;100361.16;1853595;76;21046;-45
2023/03/12 09:43:31;;;;;;;3.75;1.32;;;;;;;11.85;91.26;100360.06;1871887;76;21078;-51
2023/03/12 09:46:02;;;;;;;2.05;0.90;;;;;;;11.84;91.16;100367.61;1874733;76;21078;-48
2023/03/12 09:48:38;;;;;;;7.90;1.47;;;;;;;11.87;91.06;100362.63;1874337;76;21039;-46
2023/03/12 09:51:21;;;;;;;6.37;1.85;;;;;;;11.85;91.10;100373.25;1859107;76;21602;-47
2023/03/12 09:53:53;;;;;;;3.65;1.37;;;;;;;11.81;91.22;100379.63;1850332;76;21066;-49
2023/03/12 09:56:23;;;;;;;1.70;1.02;;;;;;;11.79;91.75;100376.21;1852776;76;21051;-45
2023/03/12 09:58:53;;;;;;;1.87;1.02;;;;;;;11.76;92.11;100376.35;1855979;76;21033;-42
2023/03/12 10:01:27;;;;;;;2.37;1.40;;;;;;;11.73;92.49;100376.49;1856750;75;21496;-42
2023/03/12 10:04:32;;;;;;;3.42;1.22;;;;;;;11.76;92.71;100353.94;1856526;77;21117;-41
2023/03/12 10:07:04;;;;;;;4.50;1.40;;;;;;;11.74;92.73;100368.52;1861219;76;21040;-45
2023/03/12 10:09:57;;;;;;;2.75;1.37;;;;;;;11.73;93.08;100361.55;1874215;76;21016;-45
2023/03/12 10:12:34;;;;;;;1.72;1.30;;;;;;;11.73;93.16;100351.44;1870863;76;21063;-43
2023/03/12 10:15:15;;;;;;;8.90;1.35;;;;;;;11.63;93.16;100352.84;1856407;77;21031;-47
2023/03/12 10:17:49;;;;;;;1.27;1.00;;;;;;;11.66;93.52;100346.11;1856310;77;21831;-46
2023/03/12 10:20:46;;;;;;;3.87;1.07;;;;;;;11.68;93.22;100350.84;1856509;77;21086;-45
2023/03/12 10:23:46;;;;;;;2.77;0.95;;;;;;;11.65;93.18;100361.05;1856432;76;21128;-45
2023/03/12 10:26:17;;;;;;;4.85;0.90;;;;;;;11.63;93.83;100348.89;1856262;77;21142;-46
2023/03/12 10:29:11;;;;;;;1.42;0.85;;;;;;;11.53;92.92;100351.98;1855771;77;21121;-49
2023/03/12 10:31:55;;;;;;;1.52;0.85;;;;;;;11.57;93.76;100342.98;1851406;77;21144;-45
2023/03/12 10:34:27;;;;;;;;;;;;;;;11.58;94.09;100355.25;1853938;77;21047;-46
2023/03/12 10:36:58;;;;;;;1.72;1.00;;;;;;;11.54;93.97;100348.39;1851211;77;20123;-46
2023/03/12 10:39:27;;;;;;;2.17;1.27;;;;;;;11.55;94.25;100348.80;1851449;77;21602;-46
2023/03/12 10:41:58;;;;;;;2.45;1.30;;;;;;;11.53;94.17;100341.91;1851285;77;21051;-51
2023/03/12 10:44:28;;;;;;;1.75;1.22;;;;;;;11.54;94.14;100341.80;1851254;77;21549;-47
2023/03/12 10:47:00;;;;;;;1.98;1.22;;;;;;;11.54;94.26;100331.73;1851329;77;21570;-49
2023/03/12 10:49:35;;;;;;;1.27;1.10;;;;;;;11.52;94.70;100330.95;1851447;77;21086;-47
2023/03/12 10:52:22;;;;;;;2.62;1.40;;;;;;;11.55;94.82;100326.86;1851280;77;21132;-48
2023/03/12 10:54:52;;;;;;;5.72;1.57;;;;;;;11.62;94.77;100330.91;1851190;77;21067;-47
2023/03/12 10:57:21;;;;;;;1.70;1.42;;;;;;;11.63;94.59;100333.91;1851166;77;21042;-48
2023/03/12 10:59:50;;;;;;;3.00;1.50;;;;;;;11.61;94.79;100327.86;1851330;77;21055;-49
2023/03/12 11:02:33;;;;;;;2.45;1.52;;;;;;;11.57;94.73;100327.64;1851260;77;21047;-50
2023/03/12 11:05:04;;;;;;;2.77;1.70;;;;;;;11.48;95.56;100318.39;1851072;77;21051;-50
2023/03/12 11:07:35;;;;;;;5.47;1.90;;;;;;;11.51;96.21;100323.96;1832813;77;21548;-52
2023/03/12 11:10:09;;;;;;;3.60;1.45;;;;;;;11.57;96.40;100331.11;1809942;79;21067;-46
2023/03/12 11:12:39;;;;;;;9.70;2.35;;;;;;;11.65;96.39;100333.36;1811399;79;21584;-47
2023/03/12 11:15:28;;;;;;;5.42;1.92;;;;;;;11.74;96.23;100333.38;1811501;79;21200;-50
2023/03/12 11:18:19;;;;;;;3.80;1.70;;;;;;;11.77;96.12;100331.91;1843832;77;21413;-48
2023/03/12 11:20:51;;;;;;;7.05;1.77;;;;;;;11.78;96.05;100327.02;1850477;77;21184;-48
2023/03/12 11:23:29;;;;;;;3.87;1.87;;;;;;;11.88;95.74;100336.18;1851310;77;21134;-48
2023/03/12 11:26:01;;;;;;;5.33;2.35;;;;;;;11.92;95.27;100335.11;1851361;77;21177;-48
2023/03/12 11:28:42;;;;;;;5.47;1.95;;;;;;;12.04;94.60;100339.38;1851270;77;21443;-48
2023/03/12 11:31:17;;;;;;;2.87;1.32;;;;;;;12.11;94.18;100336.81;1830106;78;21100;-46
2023/03/12 11:33:46;;;;;;;3.77;1.65;;;;;;;12.11;93.71;100342.08;1830005;78;21067;-61
2023/03/12 11:36:23;;;;;;;2.47;1.57;;;;;;;12.11;93.35;100346.05;1829911;78;21071;-57
2023/03/12 11:38:57;;;;;;;3.80;1.32;;;;;;;12.10;93.01;100337.75;1830072;78;21091;-62
2023/03/12 11:41:29;;;;;;;2.60;1.40;;;;;;;12.08;92.97;100326.40;1828072;77;21155;-56
2023/03/12 11:44:03;;;;;;;1.87;1.40;;;;;;;12.08;92.84;100345.75;1833178;78;21032;-57